Aérodrome :
LOGIN :

S'inscrire | Disclaimer

   EN    FR    IT 

 










Légende :    VFR   VFR Marginal   IFR   IFR Intensif   IFR Très Intensif
Visi : 
Plafond : 
>= 8 km
>= 3000ft
5 à 8 km
1000 à 3000 ft
1500m à 5 km
500 à 1000 ft
800 à 1500m
200 à 500 ft
< 800m
< 200 ft
Symboles :   Orages  Brouillard  Fortes neiges  Fortes précipitations  Vent > 20 kt
SIGMETs :   Divers  Orages  Givrage  Turbulence  Onde Orograph.  Cendres Volcan.






- Altitude de l'aérodrome : 1947 ft
- Code IATA : OBF


EDMO - Oberpfaffenhofen

DERNIER METAR :
  • 250850Z 04010KT 360V060 CAVOK 21/15 Q1015

METARs EXPIRÉS :
  • 250820Z 03010KT CAVOK 20/14 Q1014
  • 250750Z 04008KT 010V070 CAVOK 19/13 Q1015
  • 250720Z 06008KT 010V110 CAVOK 19/13 Q1015
  • 250650Z 08008KT 050V110 CAVOK 18/12 Q1015
  • 250620Z 08010KT 060V120 CAVOK 17/13 Q1015
  • 250550Z 08008KT 040V110 CAVOK 17/13 Q1015
  • 250520Z 07007KT 040V100 CAVOK 16/13 Q1015
  • 250450Z 04005KT CAVOK 16/12 Q1015
  • 250420Z AUTO 07004KT 9999 // NCD 15/12 Q1015

TAF TAF EDMO
Valide du 25 à 09h jusqu'au 25 à 18h UTC


250800Z 2509/2518 06009KT 9999 FEW040



MET'MAP, la Météo Aéronautique d'un coup d'oeil ! - Copyright ORBIFLY Décembre 2007 - Disclaimer

ORBIFLY MET'MAP TEAM :

Programmation & Développement : Alexandra Zaïnal
Sur une idée originale de : Baudouin d'Aumeries
Soutien technique & logistique : Manuel Goepfert
Assistance : Marc-Olivier Méhu




SOURCES & CREDITS :

   NOAA